createdAt,value
2017-03-21T00:00:26.814Z,11.83
2017-03-21T00:01:07.315Z,11.94
2017-03-21T00:01:47.828Z,11.94
2017-03-21T00:02:28.365Z,11.91
2017-03-21T00:03:08.892Z,11.94
2017-03-21T00:03:49.402Z,11.88
2017-03-21T00:04:29.962Z,11.91
2017-03-21T00:05:10.430Z,11.86
2017-03-21T00:05:50.946Z,11.85
2017-03-21T00:06:31.444Z,11.9
2017-03-21T00:07:11.972Z,11.88
2017-03-21T00:07:52.492Z,11.86
2017-03-21T00:08:33.028Z,11.94
2017-03-21T00:09:13.530Z,11.85
2017-03-21T00:09:54.046Z,11.94
2017-03-21T00:10:35.272Z,11.94
2017-03-21T00:11:15.762Z,11.88
2017-03-21T00:11:56.294Z,11.88
2017-03-21T00:12:36.809Z,11.86
2017-03-21T00:13:17.316Z,11.86
2017-03-21T00:13:57.844Z,11.94
2017-03-21T00:14:38.377Z,11.9
2017-03-21T00:15:18.891Z,11.85
2017-03-21T00:15:59.411Z,11.83
2017-03-21T00:16:39.943Z,11.86
2017-03-21T00:17:20.463Z,11.86
2017-03-21T00:18:00.993Z,11.85
2017-03-21T00:18:41.530Z,11.9
2017-03-21T00:19:22.058Z,11.9
2017-03-21T00:20:02.566Z,11.9
2017-03-21T00:20:43.090Z,11.83
2017-03-21T00:21:23.609Z,11.8
2017-03-21T00:22:04.135Z,11.88
2017-03-21T00:22:44.639Z,11.85
2017-03-21T00:23:25.162Z,11.83
2017-03-21T00:24:05.692Z,11.86
2017-03-21T00:24:46.190Z,11.94
2017-03-21T00:25:26.701Z,11.9
2017-03-21T00:26:07.215Z,11.85
2017-03-21T00:26:47.728Z,11.9
2017-03-21T00:27:28.260Z,11.91
2017-03-21T00:28:08.771Z,11.82
2017-03-21T00:28:49.286Z,11.86
2017-03-21T00:29:29.799Z,11.85
2017-03-21T00:30:10.325Z,11.95
2017-03-21T00:30:50.849Z,11.86
2017-03-21T00:31:31.378Z,11.86
2017-03-21T00:32:11.875Z,11.85
2017-03-21T00:32:52.421Z,11.85
2017-03-21T00:33:32.929Z,11.83
2017-03-21T00:34:13.447Z,11.88
2017-03-21T00:34:53.989Z,11.88
2017-03-21T00:35:34.474Z,11.9
2017-03-21T00:36:14.997Z,11.88
2017-03-21T00:36:55.578Z,11.86
2017-03-21T00:37:36.072Z,11.9
2017-03-21T00:38:16.600Z,11.9
2017-03-21T00:38:57.101Z,11.86
2017-03-21T00:39:37.630Z,11.94
2017-03-21T00:40:18.138Z,11.85
2017-03-21T00:40:58.668Z,11.85
2017-03-21T00:41:39.162Z,11.96
2017-03-21T00:42:19.669Z,11.9
2017-03-21T00:43:00.189Z,11.9
2017-03-21T00:43:40.705Z,11.9
2017-03-21T00:44:21.227Z,11.9
2017-03-21T00:45:01.745Z,11.94
2017-03-21T00:45:42.249Z,11.91
2017-03-21T00:46:22.746Z,11.88
2017-03-21T00:47:03.269Z,11.96
2017-03-21T00:47:43.771Z,11.99
2017-03-21T00:48:24.300Z,12.05
2017-03-21T00:49:04.827Z,12.07
2017-03-21T00:49:45.344Z,12.09
2017-03-21T00:50:25.851Z,12.1
2017-03-21T00:51:06.386Z,11.96
2017-03-21T00:51:46.908Z,12.05
2017-03-21T00:52:27.420Z,12.07
2017-03-21T00:53:07.962Z,12.05
2017-03-21T00:53:48.486Z,12.05
2017-03-21T00:54:29.011Z,11.99
2017-03-21T00:55:09.529Z,11.99
2017-03-21T00:55:50.053Z,12.02
2017-03-21T00:56:30.594Z,11.88
2017-03-21T00:57:11.131Z,11.99
2017-03-21T00:57:51.639Z,11.98
2017-03-21T00:58:32.189Z,11.99
2017-03-21T00:59:12.674Z,11.99
2017-03-21T00:59:53.188Z,12.05
2017-03-21T01:00:33.711Z,12.01
2017-03-21T01:01:14.221Z,12.1
2017-03-21T01:01:54.764Z,12.07
2017-03-21T01:02:35.260Z,11.99
2017-03-21T01:03:15.770Z,12.01
2017-03-21T01:03:56.262Z,12.04
2017-03-21T01:04:36.776Z,12.01
2017-03-21T01:05:17.286Z,12.05
2017-03-21T01:05:57.818Z,12.05
2017-03-21T01:06:38.325Z,11.98
2017-03-21T01:07:18.834Z,12.01
2017-03-21T01:07:59.360Z,12.04
2017-03-21T01:08:39.890Z,11.91
2017-03-21T01:09:20.409Z,11.9
2017-03-21T01:10:00.929Z,11.96
2017-03-21T01:10:41.464Z,12.07
2017-03-21T01:11:21.975Z,12.05
2017-03-21T01:12:02.531Z,11.99
2017-03-21T01:12:43.063Z,12.01
2017-03-21T01:13:23.573Z,12.09
2017-03-21T01:14:04.096Z,12.01
2017-03-21T01:14:44.628Z,12.05
2017-03-21T01:15:25.134Z,12.09
2017-03-21T01:16:05.658Z,11.96
2017-03-21T01:16:46.176Z,12.04
2017-03-21T01:17:26.703Z,11.96
2017-03-21T01:18:07.215Z,11.99
2017-03-21T01:18:47.736Z,12.04
2017-03-21T01:19:28.274Z,11.94
2017-03-21T01:20:08.789Z,11.95
2017-03-21T01:20:49.307Z,11.91
2017-03-21T01:21:29.818Z,11.91
2017-03-21T01:22:10.336Z,11.95
2017-03-21T01:22:50.850Z,11.91
2017-03-21T01:23:31.363Z,11.9
2017-03-21T01:24:11.894Z,11.95
2017-03-21T01:24:52.405Z,11.91
2017-03-21T01:25:32.912Z,11.95
2017-03-21T01:26:13.429Z,11.98
2017-03-21T01:26:53.951Z,11.88
2017-03-21T01:27:34.475Z,11.96
2017-03-21T01:28:14.990Z,11.94
2017-03-21T01:28:55.518Z,11.88
2017-03-21T01:29:36.040Z,11.91
2017-03-21T01:30:16.541Z,11.96
2017-03-21T01:30:57.061Z,11.91
2017-03-21T01:31:37.582Z,11.94
2017-03-21T01:32:18.117Z,11.85
2017-03-21T01:32:58.645Z,11.91
2017-03-21T01:33:39.171Z,11.9
2017-03-21T01:34:19.707Z,11.91
2017-03-21T01:35:00.231Z,11.98
2017-03-21T01:35:40.741Z,11.94
2017-03-21T01:36:21.260Z,11.96
2017-03-21T01:37:01.801Z,11.94
2017-03-21T01:37:42.323Z,11.98
2017-03-21T01:38:22.834Z,11.91
2017-03-21T01:39:03.381Z,11.94
2017-03-21T01:39:43.888Z,11.91
2017-03-21T01:40:24.423Z,11.9
2017-03-21T01:41:04.962Z,11.91
2017-03-21T01:41:45.495Z,11.88
2017-03-21T01:42:26.016Z,11.85
2017-03-21T01:43:06.545Z,11.94
2017-03-21T01:43:47.058Z,11.95
2017-03-21T01:44:27.594Z,11.91
2017-03-21T01:45:08.094Z,11.94
2017-03-21T01:45:48.601Z,12.07
2017-03-21T01:46:29.111Z,11.9
2017-03-21T01:47:09.648Z,12.04
2017-03-21T01:47:50.155Z,12.02
2017-03-21T01:48:30.679Z,12.02
2017-03-21T01:49:11.182Z,11.95
2017-03-21T01:49:51.696Z,11.95
2017-03-21T01:50:32.195Z,12.01
2017-03-21T01:51:12.716Z,11.95
2017-03-21T01:51:53.234Z,11.95
2017-03-21T01:52:33.755Z,11.88
2017-03-21T01:53:14.291Z,11.94
2017-03-21T01:53:54.776Z,11.94
2017-03-21T01:54:35.271Z,11.86
2017-03-21T01:55:15.791Z,11.9
2017-03-21T01:55:56.318Z,11.91
2017-03-21T01:56:36.825Z,11.86
2017-03-21T01:57:17.340Z,11.9
2017-03-21T01:57:57.862Z,11.85
2017-03-21T01:58:38.389Z,11.86
2017-03-21T01:59:18.889Z,11.91
2017-03-21T01:59:59.427Z,11.91
2017-03-21T02:00:40.922Z,11.95
2017-03-21T02:01:21.443Z,11.86
2017-03-21T02:02:01.974Z,11.94
2017-03-21T02:02:42.492Z,11.95
2017-03-21T02:03:23.001Z,11.9
2017-03-21T02:04:03.497Z,11.88
2017-03-21T02:04:44.023Z,11.96
2017-03-21T02:05:24.597Z,11.95
2017-03-21T02:06:05.082Z,11.94
2017-03-21T02:06:45.625Z,11.94
2017-03-21T02:07:26.157Z,11.96
2017-03-21T02:08:06.670Z,11.94
2017-03-21T02:08:47.190Z,11.91
2017-03-21T02:09:27.703Z,12.01
2017-03-21T02:10:08.228Z,11.95
2017-03-21T02:10:48.843Z,11.98
2017-03-21T02:11:29.366Z,11.98
2017-03-21T02:12:09.945Z,11.96
2017-03-21T02:12:50.580Z,11.94
2017-03-21T02:13:31.146Z,11.91
2017-03-21T02:14:11.699Z,11.9
2017-03-21T02:14:52.266Z,11.96
2017-03-21T02:15:32.816Z,11.95
2017-03-21T02:16:13.329Z,11.86
2017-03-21T02:16:53.824Z,11.9
2017-03-21T02:17:34.311Z,11.86
2017-03-21T02:18:14.878Z,11.85
2017-03-21T02:18:55.367Z,11.9
2017-03-21T02:19:35.899Z,11.79
2017-03-21T02:20:16.406Z,11.86
2017-03-21T02:20:56.961Z,11.85
2017-03-21T02:21:37.460Z,11.91
2017-03-21T02:22:17.994Z,11.94
2017-03-21T02:22:58.520Z,11.91
2017-03-21T02:23:39.002Z,11.8
2017-03-21T02:24:19.517Z,11.91
2017-03-21T02:25:00.070Z,11.85
2017-03-21T02:25:40.610Z,11.79
2017-03-21T02:26:21.080Z,11.85
2017-03-21T02:27:01.630Z,11.9
2017-03-21T02:27:42.154Z,11.83
2017-03-21T02:28:22.702Z,11.86
2017-03-21T02:29:03.315Z,11.91
2017-03-21T02:29:43.844Z,11.94
2017-03-21T02:30:24.361Z,11.86
2017-03-21T02:31:04.847Z,11.86
2017-03-21T02:31:45.414Z,11.83
2017-03-21T02:32:25.989Z,11.91
2017-03-21T02:33:06.562Z,11.88
2017-03-21T02:33:47.088Z,11.8
2017-03-21T02:34:27.582Z,11.78
2017-03-21T02:35:08.086Z,11.82
2017-03-21T02:35:48.586Z,11.79
2017-03-21T02:36:29.105Z,11.76
2017-03-21T02:37:09.636Z,11.78
2017-03-21T02:37:50.195Z,11.94
2017-03-21T02:38:30.753Z,11.88
2017-03-21T02:39:11.332Z,11.85
2017-03-21T02:39:51.901Z,11.9
2017-03-21T02:40:32.459Z,11.88
2017-03-21T02:41:13.013Z,11.83
2017-03-21T02:41:53.564Z,11.8
2017-03-21T02:42:34.124Z,11.82
2017-03-21T02:43:14.657Z,11.82
2017-03-21T02:43:55.204Z,11.85
2017-03-21T02:44:35.746Z,11.75
2017-03-21T02:45:16.295Z,11.78
2017-03-21T02:45:56.896Z,11.75
2017-03-21T02:46:37.449Z,11.83
2017-03-21T02:47:18.007Z,11.72
2017-03-21T02:47:58.524Z,11.83
2017-03-21T02:48:39.025Z,11.79
2017-03-21T02:49:19.626Z,11.79
2017-03-21T02:50:00.173Z,11.8
2017-03-21T02:50:40.700Z,11.8
2017-03-21T02:51:21.239Z,11.64
2017-03-21T02:52:01.788Z,11.73
2017-03-21T02:52:42.249Z,11.7
2017-03-21T02:53:22.759Z,11.75
2017-03-21T02:54:03.326Z,11.73
2017-03-21T02:54:43.788Z,11.67
2017-03-21T02:55:24.277Z,11.69
2017-03-21T02:56:04.785Z,11.78
2017-03-21T02:56:45.301Z,11.73
2017-03-21T02:57:25.875Z,11.72
2017-03-21T02:58:06.988Z,11.72
2017-03-21T02:58:47.533Z,11.69
2017-03-21T02:59:28.076Z,11.7
2017-03-21T03:00:08.627Z,11.75
2017-03-21T03:00:49.247Z,11.78
2017-03-21T03:01:29.811Z,11.72
2017-03-21T03:02:10.369Z,11.73
2017-03-21T03:02:50.902Z,11.72
2017-03-21T03:03:31.470Z,11.7
2017-03-21T03:04:12.043Z,11.64
2017-03-21T03:04:52.591Z,11.75
2017-03-21T03:05:33.140Z,11.7
2017-03-21T03:06:13.692Z,11.75
2017-03-21T03:06:54.260Z,11.75
2017-03-21T03:07:34.835Z,11.75
2017-03-21T03:08:15.391Z,11.69
2017-03-21T03:08:55.933Z,11.67
2017-03-21T03:09:36.517Z,11.6
2017-03-21T03:10:17.081Z,11.7
2017-03-21T03:10:57.580Z,11.65
2017-03-21T03:11:38.076Z,11.6
2017-03-21T03:12:18.726Z,11.67
2017-03-21T03:12:59.198Z,11.7
2017-03-21T03:13:39.715Z,11.7
2017-03-21T03:14:20.309Z,11.61
2017-03-21T03:15:00.844Z,11.73
2017-03-21T03:15:41.359Z,11.72
2017-03-21T03:16:21.879Z,11.64
2017-03-21T03:17:02.387Z,11.58
2017-03-21T03:17:42.923Z,11.67
2017-03-21T03:18:23.402Z,11.65
2017-03-21T03:20:37.657Z,11.51
2017-03-21T03:21:18.187Z,11.54
2017-03-21T03:21:58.750Z,11.51
2017-03-21T03:22:39.194Z,11.54
2017-03-21T03:23:19.719Z,11.54
2017-03-21T03:24:00.269Z,11.47
2017-03-21T03:24:40.868Z,11.52
2017-03-21T03:25:21.384Z,11.44
2017-03-21T03:26:01.917Z,11.54
2017-03-21T03:26:42.462Z,11.49
2017-03-21T03:27:23.047Z,11.47
2017-03-21T03:28:03.583Z,11.52
2017-03-21T03:28:44.117Z,11.52
2017-03-21T03:29:24.669Z,11.62
2017-03-21T03:30:05.258Z,11.57
2017-03-21T03:30:45.800Z,11.52
2017-03-21T03:31:26.340Z,11.58
2017-03-21T03:32:06.934Z,11.46
2017-03-21T03:32:47.502Z,11.49
2017-03-21T03:33:28.015Z,11.49
2017-03-21T03:34:08.545Z,11.52
2017-03-21T03:34:49.031Z,11.49
2017-03-21T03:35:29.618Z,11.52
2017-03-21T03:36:10.096Z,11.57
2017-03-21T03:36:50.630Z,11.52
2017-03-21T03:37:31.198Z,11.47
2017-03-21T03:38:11.662Z,11.49
2017-03-21T03:38:52.194Z,11.58
2017-03-21T03:39:32.711Z,11.36
2017-03-21T03:40:13.214Z,11.42
2017-03-21T03:40:53.734Z,11.44
2017-03-21T03:41:34.236Z,11.43
2017-03-21T03:42:14.735Z,11.37
2017-03-21T03:42:55.229Z,11.42
2017-03-21T03:43:35.744Z,11.44
2017-03-21T03:44:16.259Z,11.4
2017-03-21T03:44:56.741Z,11.42
2017-03-21T03:45:37.260Z,11.46
2017-03-21T03:46:17.821Z,11.44
2017-03-21T03:46:58.357Z,11.43
2017-03-21T03:47:38.821Z,11.37
2017-03-21T03:48:19.345Z,11.39
2017-03-21T03:48:59.903Z,11.43
2017-03-21T03:49:40.458Z,11.4
2017-03-21T03:50:21.047Z,11.47
2017-03-21T03:51:01.507Z,11.39
2017-03-21T03:51:42.038Z,11.42
2017-03-21T03:52:22.519Z,11.42
2017-03-21T03:53:03.062Z,11.42
2017-03-21T03:53:43.628Z,11.4
2017-03-21T03:54:24.124Z,11.42
2017-03-21T03:55:04.633Z,11.43
2017-03-21T03:55:45.156Z,11.39
2017-03-21T03:56:25.688Z,11.43
2017-03-21T03:57:06.198Z,11.39
2017-03-21T03:57:46.702Z,11.39
2017-03-21T03:58:27.230Z,11.43
2017-03-21T03:59:07.773Z,11.4
2017-03-21T03:59:48.262Z,11.44
2017-03-21T04:00:28.805Z,11.37
2017-03-21T04:01:09.323Z,11.33
2017-03-21T04:01:49.854Z,11.37
2017-03-21T04:02:30.360Z,11.28
2017-03-21T04:03:10.917Z,11.19
2017-03-21T04:03:51.452Z,11.17
2017-03-21T04:04:32.037Z,11.11
2017-03-21T04:05:12.577Z,11.06
2017-03-21T04:05:53.133Z,11
2017-03-21T04:06:33.594Z,10.97
2017-03-21T04:07:14.095Z,10.84
2017-03-21T04:07:54.605Z,10.84
2017-03-21T04:08:35.122Z,10.84
2017-03-21T04:09:15.632Z,10.73
2017-03-21T04:09:56.198Z,10.7
2017-03-21T04:10:36.746Z,10.68
2017-03-21T04:11:17.309Z,10.64
2017-03-21T04:11:57.855Z,10.66
2017-03-21T04:12:38.376Z,10.68
2017-03-21T04:13:18.900Z,10.61
2017-03-21T04:13:59.823Z,10.52
2017-03-21T04:14:40.340Z,10.52
2017-03-21T04:15:20.879Z,10.51
2017-03-21T04:16:01.466Z,10.55
2017-03-21T04:16:41.988Z,10.51
2017-03-21T04:17:22.570Z,10.51
2017-03-21T04:18:03.118Z,10.36
2017-03-21T04:18:43.665Z,10.38
2017-03-21T04:19:24.200Z,10.38
2017-03-21T04:20:04.759Z,10.47
2017-03-21T04:20:45.290Z,10.3
2017-03-21T04:21:25.803Z,10.29
2017-03-21T04:22:06.316Z,10.32
2017-03-21T04:22:46.816Z,10.32
2017-03-21T04:23:27.326Z,10.3
2017-03-21T04:24:07.836Z,10.22
2017-03-21T04:24:48.341Z,10.23
2017-03-21T04:25:28.809Z,10.2
2017-03-21T04:26:09.347Z,10.15
2017-03-21T04:26:49.855Z,10.04
2017-03-21T04:27:30.360Z,10.15
2017-03-21T04:28:10.871Z,10.08
2017-03-21T04:28:51.380Z,10.12
2017-03-21T04:29:31.897Z,10.11
2017-03-21T04:30:12.401Z,10.08
2017-03-21T04:30:52.926Z,10.07
2017-03-21T04:31:33.434Z,10.09
2017-03-21T04:32:13.954Z,10.11
2017-03-21T04:32:54.479Z,10.09
2017-03-21T04:33:34.977Z,10.08
2017-03-21T04:34:15.498Z,10.12
2017-03-21T04:34:55.989Z,10.09
2017-03-21T04:35:36.530Z,10.08
2017-03-21T04:36:17.052Z,10.09
2017-03-21T04:36:57.590Z,10.04
2017-03-21T04:37:38.087Z,10.11
2017-03-21T04:38:18.657Z,10.09
2017-03-21T04:38:59.160Z,10.08
2017-03-21T04:39:39.680Z,10.12
2017-03-21T04:40:20.205Z,10.05
2017-03-21T04:41:00.759Z,10.04
2017-03-21T04:41:41.282Z,10.05
2017-03-21T04:42:21.813Z,10.11
2017-03-21T04:43:02.367Z,10.07
2017-03-21T04:43:42.910Z,10.02
2017-03-21T04:44:23.415Z,10.08
2017-03-21T04:45:03.949Z,10.01
2017-03-21T04:45:44.420Z,10.04
2017-03-21T04:46:24.987Z,10.07
2017-03-21T04:47:05.487Z,9.97
2017-03-21T04:47:45.980Z,10.01
2017-03-21T04:48:26.543Z,9.99
2017-03-21T04:49:07.034Z,10.04
2017-03-21T04:49:47.547Z,10.04
2017-03-21T04:50:28.092Z,10.01
2017-03-21T04:51:08.668Z,10.02
2017-03-21T04:51:49.197Z,9.91
2017-03-21T04:52:29.699Z,9.9
2017-03-21T04:53:10.217Z,9.96
2017-03-21T04:53:50.706Z,9.99
2017-03-21T04:54:31.228Z,10.01
2017-03-21T04:55:11.746Z,9.99
2017-03-21T04:55:52.256Z,9.96
2017-03-21T04:56:32.774Z,9.94
2017-03-21T04:57:13.346Z,9.89
2017-03-21T04:57:53.919Z,9.94
2017-03-21T04:58:34.413Z,9.91
2017-03-21T04:59:14.954Z,9.94
2017-03-21T04:59:55.411Z,9.9
2017-03-21T05:00:35.917Z,9.94
2017-03-21T05:01:16.457Z,9.89
2017-03-21T05:01:57.063Z,9.91
2017-03-21T05:02:37.563Z,9.87
2017-03-21T05:03:18.027Z,9.9
2017-03-21T05:03:58.546Z,9.93
2017-03-21T05:04:39.054Z,9.87
2017-03-21T05:05:19.575Z,9.87
2017-03-21T05:06:00.144Z,9.89
2017-03-21T05:06:40.604Z,9.97
2017-03-21T05:07:21.145Z,9.91
2017-03-21T05:08:01.680Z,9.97
2017-03-21T05:08:42.210Z,9.96
2017-03-21T05:09:22.776Z,9.91
2017-03-21T05:10:03.313Z,9.99
2017-03-21T05:10:43.869Z,9.87
2017-03-21T05:11:24.413Z,9.91
2017-03-21T05:12:04.968Z,9.89
2017-03-21T05:12:45.571Z,9.91
2017-03-21T05:13:26.140Z,9.93
2017-03-21T05:14:06.646Z,9.89
2017-03-21T05:14:47.291Z,9.84
2017-03-21T05:15:27.876Z,9.89
2017-03-21T05:16:08.470Z,9.93
2017-03-21T05:16:49.003Z,9.9
2017-03-21T05:17:29.466Z,9.91
2017-03-21T05:18:09.998Z,9.84
2017-03-21T05:18:50.536Z,9.87
2017-03-21T05:19:31.003Z,9.87
2017-03-21T05:20:11.588Z,9.91
2017-03-21T05:20:52.119Z,9.87
2017-03-21T05:21:32.651Z,9.89
2017-03-21T05:22:13.208Z,9.93
2017-03-21T05:22:53.784Z,9.86
2017-03-21T05:23:34.357Z,9.9
2017-03-21T05:24:14.881Z,9.9
2017-03-21T05:24:56.198Z,9.9
2017-03-21T05:25:36.797Z,9.89
2017-03-21T05:26:17.993Z,9.87
2017-03-21T05:26:58.535Z,9.87
2017-03-21T05:27:39.133Z,9.87
2017-03-21T05:28:19.624Z,9.76
2017-03-21T05:29:00.140Z,9.9
2017-03-21T05:29:40.655Z,9.87
2017-03-21T05:30:21.253Z,9.86
2017-03-21T05:31:01.826Z,9.87
2017-03-21T05:31:42.349Z,9.87
2017-03-21T05:32:22.870Z,9.86
2017-03-21T05:33:03.446Z,9.86
2017-03-21T05:33:44.012Z,9.87
2017-03-21T05:34:24.516Z,9.86
2017-03-21T05:35:05.029Z,9.91
2017-03-21T05:35:45.633Z,9.9
2017-03-21T05:36:26.135Z,9.89
2017-03-21T05:37:06.632Z,9.9
2017-03-21T05:37:47.151Z,9.87
2017-03-21T05:38:27.681Z,9.91
2017-03-21T05:39:08.221Z,9.99
2017-03-21T05:39:48.734Z,9.91
2017-03-21T05:40:29.274Z,9.87
2017-03-21T05:41:09.804Z,9.87
2017-03-21T05:41:50.314Z,9.96
2017-03-21T05:42:30.820Z,9.89
2017-03-21T05:43:11.366Z,9.94
2017-03-21T05:43:51.923Z,9.87
2017-03-21T05:44:32.433Z,9.9
2017-03-21T05:45:12.981Z,9.99
2017-03-21T05:45:53.481Z,9.89
2017-03-21T05:46:34.049Z,10.01
2017-03-21T05:47:14.577Z,9.96
2017-03-21T05:47:55.086Z,10.02
2017-03-21T05:48:35.597Z,9.97
2017-03-21T05:49:16.113Z,9.93
2017-03-21T05:49:56.617Z,9.91
2017-03-21T05:50:37.118Z,9.99
2017-03-21T05:51:17.644Z,9.87
2017-03-21T05:51:58.155Z,9.89
2017-03-21T05:52:38.668Z,9.99
2017-03-21T05:53:19.187Z,9.89
2017-03-21T05:53:59.718Z,9.89
2017-03-21T05:54:40.250Z,9.9
2017-03-21T05:55:20.767Z,9.97
2017-03-21T05:56:01.279Z,9.91
2017-03-21T05:56:41.800Z,9.83
2017-03-21T05:57:22.342Z,9.89
2017-03-21T05:58:02.861Z,9.91
2017-03-21T05:58:43.366Z,9.94
2017-03-21T05:59:23.886Z,9.89
2017-03-21T06:00:04.381Z,9.96
2017-03-21T06:00:44.920Z,9.97
2017-03-21T06:01:25.512Z,9.97
2017-03-21T06:02:06.026Z,9.87
2017-03-21T06:02:46.586Z,9.91
2017-03-21T06:03:27.131Z,10.01
2017-03-21T06:04:07.672Z,9.9
2017-03-21T06:04:48.169Z,9.99
2017-03-21T06:05:28.690Z,9.91
2017-03-21T06:06:09.194Z,9.89
2017-03-21T06:06:49.727Z,9.93
2017-03-21T06:07:30.226Z,9.97
2017-03-21T06:08:10.737Z,9.89
2017-03-21T06:08:51.246Z,9.93
2017-03-21T06:09:31.747Z,9.96
2017-03-21T06:10:12.284Z,9.91
2017-03-21T06:10:52.796Z,9.89
2017-03-21T06:11:33.311Z,9.89
2017-03-21T06:12:13.834Z,9.91
2017-03-21T06:12:54.365Z,9.96
2017-03-21T06:13:34.881Z,9.9
2017-03-21T06:14:15.391Z,9.87
2017-03-21T06:14:55.913Z,9.87
2017-03-21T06:15:36.447Z,9.96
2017-03-21T06:16:16.985Z,9.96
2017-03-21T06:16:57.476Z,9.99
2017-03-21T06:17:37.986Z,10.04
2017-03-21T06:18:18.493Z,9.87
2017-03-21T06:18:59.003Z,9.87
2017-03-21T06:19:39.529Z,9.91
2017-03-21T06:20:20.014Z,9.9
2017-03-21T06:21:00.529Z,9.94
2017-03-21T06:21:41.039Z,9.91
2017-03-21T06:22:21.572Z,9.91
2017-03-21T06:23:02.073Z,9.94
2017-03-21T06:23:42.573Z,9.97
2017-03-21T06:24:23.081Z,10.02
2017-03-21T06:25:03.585Z,9.96
2017-03-21T06:25:44.108Z,9.96
2017-03-21T06:26:24.631Z,10.07
2017-03-21T06:27:05.165Z,9.99
2017-03-21T06:27:45.650Z,10.04
2017-03-21T06:28:26.161Z,9.96
2017-03-21T06:29:06.676Z,9.91
2017-03-21T06:29:47.202Z,10.01
2017-03-21T06:30:27.707Z,10.04
2017-03-21T06:31:08.234Z,10.02
2017-03-21T06:31:48.805Z,10.04
2017-03-21T06:32:29.327Z,10.02
2017-03-21T06:33:09.801Z,10.07
2017-03-21T06:33:50.327Z,10.01
2017-03-21T06:34:30.833Z,10.07
2017-03-21T06:35:11.360Z,10.08
2017-03-21T06:35:51.902Z,10.08
2017-03-21T06:36:32.429Z,10.08
2017-03-21T06:37:12.945Z,10.05
2017-03-21T06:37:53.441Z,10.09
2017-03-21T06:38:33.938Z,10.18
2017-03-21T06:39:14.449Z,10.14
2017-03-21T06:39:54.957Z,10.15
2017-03-21T06:40:35.472Z,10.2
2017-03-21T06:41:15.984Z,10.2
2017-03-21T06:41:56.518Z,10.17
2017-03-21T06:42:37.035Z,10.2
2017-03-21T06:43:17.610Z,10.23
2017-03-21T06:43:58.133Z,10.27
2017-03-21T06:44:38.651Z,10.26
2017-03-21T06:45:19.156Z,10.29
2017-03-21T06:45:59.708Z,10.36
2017-03-21T06:46:40.248Z,10.32
2017-03-21T06:47:20.771Z,10.36
2017-03-21T06:48:01.309Z,10.42
2017-03-21T06:48:41.824Z,10.34
2017-03-21T06:49:22.310Z,10.36
2017-03-21T06:50:02.823Z,10.36
2017-03-21T06:50:43.335Z,10.41
2017-03-21T06:51:23.894Z,10.36
2017-03-21T06:52:04.465Z,10.41
2017-03-21T06:52:45.287Z,10.45
2017-03-21T06:53:25.864Z,10.55
2017-03-21T06:54:06.378Z,10.55
2017-03-21T06:54:46.873Z,10.56
2017-03-21T06:55:27.411Z,10.66
2017-03-21T06:56:07.947Z,10.6
2017-03-21T06:56:48.457Z,10.59
2017-03-21T06:57:28.973Z,10.68
2017-03-21T06:58:09.496Z,10.63
2017-03-21T06:58:50.008Z,10.68
2017-03-21T06:59:30.531Z,10.64
2017-03-21T07:00:11.073Z,10.64
2017-03-21T07:00:51.587Z,10.74
2017-03-21T07:01:32.092Z,10.78
2017-03-21T07:02:12.595Z,10.74
2017-03-21T07:02:53.109Z,10.74
2017-03-21T07:03:33.636Z,10.92
2017-03-21T07:04:14.154Z,10.82
2017-03-21T07:04:54.680Z,10.73
2017-03-21T07:05:35.219Z,10.74
2017-03-21T07:06:15.735Z,10.84
2017-03-21T07:06:56.261Z,10.89
2017-03-21T07:07:36.787Z,10.84
2017-03-21T07:08:17.289Z,10.81
2017-03-21T07:08:57.805Z,10.81
2017-03-21T07:09:38.323Z,10.82
2017-03-21T07:10:18.813Z,10.91
2017-03-21T07:10:59.343Z,10.85
2017-03-21T07:11:39.895Z,10.85
2017-03-21T07:12:20.411Z,10.92
2017-03-21T07:13:00.938Z,10.89
2017-03-21T07:13:41.445Z,10.89
2017-03-21T07:14:21.973Z,10.91
2017-03-21T07:15:02.507Z,10.88
2017-03-21T07:15:43.009Z,10.91
2017-03-21T07:16:23.533Z,10.94
2017-03-21T07:17:04.037Z,10.97
2017-03-21T07:17:44.567Z,10.96
2017-03-21T07:18:25.086Z,10.94
2017-03-21T07:19:05.590Z,10.94
2017-03-21T07:19:46.111Z,10.99
2017-03-21T07:20:26.649Z,10.97
2017-03-21T07:21:07.185Z,10.94
2017-03-21T07:21:47.719Z,10.96
2017-03-21T07:22:28.218Z,10.92
2017-03-21T07:23:08.727Z,10.94
2017-03-21T07:23:49.251Z,10.97
2017-03-21T07:24:29.757Z,10.91
2017-03-21T07:25:12.054Z,10.91
2017-03-21T07:25:52.505Z,10.92
2017-03-21T07:26:33.012Z,10.94
2017-03-21T07:27:13.529Z,10.91
2017-03-21T07:27:54.044Z,10.96
2017-03-21T07:28:34.562Z,11
2017-03-21T07:29:15.103Z,10.91
2017-03-21T07:29:55.648Z,11.02
2017-03-21T07:30:36.116Z,10.97
2017-03-21T07:31:16.632Z,10.97
2017-03-21T07:31:57.137Z,11.03
2017-03-21T07:32:37.655Z,10.97
2017-03-21T07:33:18.171Z,10.94
2017-03-21T07:33:58.717Z,10.85
2017-03-21T07:34:39.203Z,10.92
2017-03-21T07:35:19.713Z,10.84
2017-03-21T07:36:00.232Z,10.86
2017-03-21T07:36:40.737Z,10.82
2017-03-21T07:37:21.236Z,10.81
2017-03-21T07:38:01.731Z,10.74
2017-03-21T07:38:42.261Z,10.82
2017-03-21T07:39:22.764Z,10.86
2017-03-21T07:40:03.271Z,10.85
2017-03-21T07:40:43.788Z,10.84
2017-03-21T07:41:24.298Z,10.86
2017-03-21T07:42:04.796Z,10.89
2017-03-21T07:42:45.313Z,10.81
2017-03-21T07:43:25.830Z,10.82
2017-03-21T07:44:06.353Z,10.88
2017-03-21T07:44:46.872Z,10.85
2017-03-21T07:45:27.398Z,10.94
2017-03-21T07:46:07.920Z,11
2017-03-21T07:46:48.469Z,10.96
2017-03-21T07:47:28.933Z,11.07
2017-03-21T07:48:09.459Z,11.1
2017-03-21T07:48:49.999Z,11.06
2017-03-21T07:49:30.498Z,11.15
2017-03-21T07:50:11.033Z,11.15
2017-03-21T07:50:51.597Z,11.11
2017-03-21T07:51:32.071Z,11.1
2017-03-21T07:52:12.581Z,11.15
2017-03-21T07:52:53.112Z,11.11
2017-03-21T07:53:33.626Z,11.17
2017-03-21T07:54:14.139Z,11.14
2017-03-21T07:54:54.656Z,11.15
2017-03-21T07:55:35.177Z,11.15
2017-03-21T07:56:15.685Z,11.18
2017-03-21T07:56:56.176Z,11.21
2017-03-21T07:57:36.703Z,11.24
2017-03-21T07:58:17.189Z,11.19
2017-03-21T07:58:57.712Z,11.28
2017-03-21T07:59:38.228Z,11.35
2017-03-21T08:00:18.748Z,11.28
2017-03-21T08:00:59.267Z,11.35
2017-03-21T08:01:39.851Z,11.4
2017-03-21T08:02:20.362Z,11.39
2017-03-21T08:03:00.886Z,11.39
2017-03-21T08:03:41.407Z,11.42
2017-03-21T08:04:21.932Z,11.35
2017-03-21T08:05:02.430Z,11.43
2017-03-21T08:05:42.945Z,11.52
2017-03-21T08:06:23.457Z,11.47
2017-03-21T08:07:03.989Z,11.46
2017-03-21T08:07:44.467Z,11.37
2017-03-21T08:08:24.997Z,11.33
2017-03-21T08:09:05.501Z,11.33
2017-03-21T08:09:46.029Z,11.32
2017-03-21T08:10:26.556Z,11.35
2017-03-21T08:11:07.074Z,11.18
2017-03-21T08:11:47.596Z,11.21
2017-03-21T08:12:28.112Z,11.25
2017-03-21T08:13:08.640Z,11.18
2017-03-21T08:13:49.154Z,11.1
2017-03-21T08:14:29.691Z,11.17
2017-03-21T08:15:10.198Z,11.06
2017-03-21T08:15:50.711Z,11.07
2017-03-21T08:16:31.270Z,11.22
2017-03-21T08:17:11.774Z,11.22
2017-03-21T08:17:52.285Z,11.17
2017-03-21T08:18:32.792Z,11.22
2017-03-21T08:19:13.316Z,11.22
2017-03-21T08:19:53.841Z,11.19
2017-03-21T08:20:34.351Z,11.18
2017-03-21T08:21:14.898Z,11.18
2017-03-21T08:21:55.390Z,11.24
2017-03-21T08:22:35.901Z,11.25
2017-03-21T08:23:16.427Z,11.19
2017-03-21T08:23:56.940Z,11.22
2017-03-21T08:24:37.456Z,11.17
2017-03-21T08:25:17.944Z,11.32
2017-03-21T08:25:58.462Z,11.29
2017-03-21T08:26:38.964Z,11.24
2017-03-21T08:27:19.487Z,11.21
2017-03-21T08:28:00.000Z,11.15
2017-03-21T08:28:40.527Z,11.22
2017-03-21T08:29:21.036Z,11.19
2017-03-21T08:30:01.552Z,11.25
2017-03-21T08:30:42.075Z,11.27
2017-03-21T08:31:22.605Z,11.33
2017-03-21T08:32:03.135Z,11.4
2017-03-21T08:32:43.646Z,11.36
2017-03-21T08:33:24.144Z,11.36
2017-03-21T08:34:04.684Z,11.37
2017-03-21T08:34:45.196Z,11.37
2017-03-21T08:35:25.700Z,11.39
2017-03-21T08:36:06.209Z,11.57
2017-03-21T08:36:46.715Z,11.57
2017-03-21T08:37:27.237Z,11.52
2017-03-21T08:38:07.762Z,11.51
2017-03-21T08:38:48.264Z,11.55
2017-03-21T08:39:28.789Z,11.55
2017-03-21T08:40:09.282Z,11.52
2017-03-21T08:40:49.813Z,11.49
2017-03-21T08:41:30.326Z,11.6
2017-03-21T08:42:10.828Z,11.69
2017-03-21T08:42:51.360Z,11.65
2017-03-21T08:43:31.876Z,11.7
2017-03-21T08:44:12.402Z,11.8
2017-03-21T08:44:52.911Z,11.82
2017-03-21T08:45:33.425Z,11.78
2017-03-21T08:46:13.940Z,11.8
2017-03-21T08:46:54.465Z,11.83
2017-03-21T08:47:34.979Z,11.8
2017-03-21T08:48:15.513Z,11.79
2017-03-21T08:48:56.035Z,11.8